createdAt,value
2023-03-18T00:01:41.124Z,7.79
2023-03-18T00:04:30.932Z,7.67
2023-03-18T00:07:20.161Z,7.69
2023-03-18T00:10:12.375Z,7.63
2023-03-18T00:13:01.379Z,7.46
2023-03-18T00:15:52.174Z,7.43
2023-03-18T00:18:42.064Z,7.44
2023-03-18T00:21:31.212Z,7.38
2023-03-18T00:24:19.817Z,7.28
2023-03-18T00:27:11.373Z,7.23
2023-03-18T00:30:00.047Z,7.27
2023-03-18T00:32:49.577Z,7.30
2023-03-18T00:35:39.344Z,7.13
2023-03-18T00:38:30.884Z,7.06
2023-03-18T00:41:19.660Z,6.91
2023-03-18T00:44:10.477Z,6.98
2023-03-18T00:46:59.589Z,7.05
2023-03-18T00:49:49.031Z,7.04
2023-03-18T00:52:39.979Z,7.01
2023-03-18T00:55:28.765Z,6.91
2023-03-18T00:58:18.196Z,6.74
2023-03-18T01:01:09.838Z,6.84
2023-03-18T01:04:00.747Z,6.88
2023-03-18T01:06:51.765Z,6.87
2023-03-18T01:09:41.175Z,6.85
2023-03-18T01:12:29.770Z,6.80
2023-03-18T01:15:22.254Z,6.81
2023-03-18T01:18:12.379Z,6.72
2023-03-18T01:21:02.105Z,6.62
2023-03-18T01:23:56.192Z,6.44
2023-03-18T01:26:45.422Z,6.52
2023-03-18T01:29:35.111Z,6.52
2023-03-18T01:32:24.772Z,6.55
2023-03-18T01:35:15.155Z,6.60
2023-03-18T01:38:10.358Z,6.47
2023-03-18T01:40:59.686Z,6.46
2023-03-18T01:43:50.134Z,6.47
2023-03-18T01:46:40.833Z,6.49
2023-03-18T01:49:35.390Z,6.43
2023-03-18T01:52:32.069Z,6.34
2023-03-18T01:55:23.951Z,6.31
2023-03-18T01:58:17.169Z,6.26
2023-03-18T02:01:13.929Z,6.25
2023-03-18T02:04:04.256Z,6.24
2023-03-18T02:06:52.870Z,6.21
2023-03-18T02:09:43.765Z,6.19
2023-03-18T02:12:36.060Z,6.19
2023-03-18T02:15:27.631Z,6.20
2023-03-18T02:18:20.347Z,6.10
2023-03-18T02:21:21.539Z,6.12
2023-03-18T02:24:29.266Z,6.12
2023-03-18T02:27:20.704Z,6.10
2023-03-18T02:30:14.257Z,6.07
2023-03-18T02:33:06.995Z,6.06
2023-03-18T02:36:04.327Z,6.07
2023-03-18T02:38:57.788Z,6.06
2023-03-18T02:41:47.835Z,6.02
2023-03-18T02:44:42.207Z,5.94
2023-03-18T02:48:01.130Z,5.94
2023-03-18T02:50:50.268Z,5.92
2023-03-18T02:53:40.662Z,5.93
2023-03-18T02:56:31.382Z,5.78
2023-03-18T02:59:21.797Z,5.71
2023-03-18T03:02:12.646Z,5.73
2023-03-18T03:05:02.638Z,5.75
2023-03-18T03:07:52.175Z,5.71
2023-03-18T03:10:42.223Z,5.66
2023-03-18T03:13:31.912Z,5.68
2023-03-18T03:16:21.382Z,5.59
2023-03-18T03:19:12.842Z,5.50
2023-03-18T03:22:02.144Z,5.54
2023-03-18T03:24:51.562Z,5.51
2023-03-18T03:27:40.156Z,5.56
2023-03-18T03:30:29.864Z,5.57
2023-03-18T03:33:18.744Z,5.51
2023-03-18T03:36:13.164Z,5.50
2023-03-18T03:39:02.269Z,5.47
2023-03-18T03:41:51.682Z,5.41
2023-03-18T03:44:40.798Z,5.47
2023-03-18T03:47:31.189Z,5.49
2023-03-18T03:50:20.873Z,5.47
2023-03-18T03:53:11.445Z,5.45
2023-03-18T03:56:00.668Z,5.42
2023-03-18T03:58:49.862Z,5.37
2023-03-18T04:01:40.127Z,5.34
2023-03-18T04:04:30.142Z,5.30
2023-03-18T04:07:19.434Z,5.24
2023-03-18T04:10:13.921Z,5.25
2023-03-18T04:13:03.613Z,5.26
2023-03-18T04:15:53.189Z,5.27
2023-03-18T04:18:42.847Z,5.28
2023-03-18T04:21:31.882Z,5.22
2023-03-18T04:24:20.793Z,5.18
2023-03-18T04:27:12.911Z,5.20
2023-03-18T04:30:01.918Z,5.22
2023-03-18T04:33:01.735Z,5.24
2023-03-18T04:35:52.659Z,5.19
2023-03-18T04:38:43.115Z,5.12
2023-03-18T04:41:32.437Z,5.16
2023-03-18T04:44:26.316Z,5.18
2023-03-18T04:47:16.982Z,5.12
2023-03-18T04:50:10.858Z,5.01
2023-03-18T04:53:00.171Z,4.98
2023-03-18T04:55:51.738Z,5.03
2023-03-18T04:58:44.165Z,5.03
2023-03-18T05:01:39.508Z,5.03
2023-03-18T05:04:29.269Z,4.98
2023-03-18T05:07:18.171Z,5.02
2023-03-18T05:10:18.912Z,4.94
2023-03-18T05:13:10.897Z,4.84
2023-03-18T05:15:59.677Z,4.90
2023-03-18T05:18:49.929Z,4.97
2023-03-18T05:21:39.841Z,4.97
2023-03-18T05:24:28.783Z,4.99
2023-03-18T05:27:21.132Z,5.02
2023-03-18T05:30:19.557Z,5.01
2023-03-18T05:33:12.055Z,5.05
2023-03-18T05:36:09.812Z,5.09
2023-03-18T05:39:05.911Z,5.05
2023-03-18T05:41:54.949Z,5.04
2023-03-18T05:44:48.293Z,5.05
2023-03-18T05:47:41.848Z,4.91
2023-03-18T05:50:35.554Z,5.02
2023-03-18T05:53:29.858Z,5.08
2023-03-18T05:56:28.759Z,5.10
2023-03-18T05:59:23.767Z,5.12
2023-03-18T06:02:18.867Z,5.21
2023-03-18T06:05:09.154Z,5.18
2023-03-18T06:07:59.077Z,5.16
2023-03-18T06:10:49.416Z,5.18
2023-03-18T06:13:38.261Z,5.17
2023-03-18T06:16:28.296Z,5.15
2023-03-18T06:19:17.944Z,5.18
2023-03-18T06:22:06.660Z,5.27
2023-03-18T06:24:55.642Z,5.32
2023-03-18T06:27:47.122Z,5.35
2023-03-18T06:30:36.558Z,5.41
2023-03-18T06:33:26.940Z,5.48
2023-03-18T06:36:16.602Z,5.39
2023-03-18T06:39:10.749Z,5.34
2023-03-18T06:42:00.004Z,5.42
2023-03-18T06:45:04.694Z,5.50
2023-03-18T06:48:06.649Z,5.59
2023-03-18T06:50:57.637Z,5.63
2023-03-18T06:53:53.805Z,5.67
2023-03-18T06:56:46.221Z,5.77
2023-03-18T06:59:41.210Z,5.81
2023-03-18T07:02:31.917Z,5.91
2023-03-18T07:05:21.704Z,6.02
2023-03-18T07:08:11.734Z,6.11
2023-03-18T07:11:03.828Z,6.19
2023-03-18T07:13:54.318Z,6.29
2023-03-18T07:16:48.931Z,6.40
2023-03-18T07:19:38.937Z,6.51
2023-03-18T07:22:27.559Z,6.66
2023-03-18T07:25:16.658Z,6.75
2023-03-18T07:28:05.945Z,6.80
2023-03-18T07:30:54.984Z,6.88
2023-03-18T07:33:43.639Z,7.00
2023-03-18T07:36:34.624Z,7.07
2023-03-18T07:39:23.595Z,7.07
2023-03-18T07:42:12.678Z,7.24
2023-03-18T07:45:08.748Z,7.37
2023-03-18T07:47:58.993Z,7.55
2023-03-18T07:50:47.601Z,7.70
2023-03-18T07:53:38.230Z,7.83
2023-03-18T07:56:27.579Z,7.92
2023-03-18T07:59:18.580Z,8.03
2023-03-18T08:02:08.238Z,8.16
2023-03-18T08:04:58.056Z,8.30
2023-03-18T08:07:46.762Z,8.44
2023-03-18T08:10:37.470Z,8.59
2023-03-18T08:13:27.055Z,8.69
2023-03-18T08:16:15.992Z,8.79
2023-03-18T08:19:04.789Z,8.95
2023-03-18T08:21:55.731Z,9.09
2023-03-18T08:24:45.677Z,9.28
2023-03-18T08:27:36.900Z,9.40
2023-03-18T08:30:28.698Z,9.55
2023-03-18T08:33:17.367Z,9.66
2023-03-18T08:36:06.882Z,9.77
2023-03-18T08:38:57.773Z,9.88
2023-03-18T08:41:46.383Z,10.01
2023-03-18T08:44:36.345Z,10.04
2023-03-18T08:47:25.859Z,10.07
2023-03-18T08:50:15.309Z,10.20
2023-03-18T08:53:06.192Z,10.38
2023-03-18T08:55:54.778Z,10.50
2023-03-18T08:58:45.908Z,10.70
2023-03-18T09:01:35.908Z,10.83
2023-03-18T09:04:26.460Z,10.94
2023-03-18T09:07:17.932Z,11.01
2023-03-18T09:10:09.423Z,11.18
2023-03-18T09:12:58.676Z,11.30
2023-03-18T09:15:47.273Z,11.42
2023-03-18T09:18:38.505Z,11.48
2023-03-18T09:21:27.163Z,11.63
2023-03-18T09:24:16.610Z,11.64
2023-03-18T09:27:05.487Z,11.82
2023-03-18T09:29:54.897Z,11.96
2023-03-18T09:32:44.715Z,12.04
2023-03-18T09:35:36.436Z,12.16
2023-03-18T09:38:27.096Z,12.28
2023-03-18T09:41:30.022Z,12.39
2023-03-18T09:44:25.045Z,12.46
2023-03-18T09:47:36.680Z,12.54
2023-03-18T09:50:38.194Z,12.60
2023-03-18T09:53:32.496Z,12.77
2023-03-18T09:56:26.825Z,12.79
2023-03-18T09:59:23.228Z,12.94
2023-03-18T10:02:22.511Z,13.01
2023-03-18T10:05:15.542Z,13.14
2023-03-18T10:08:15.131Z,13.64
2023-03-18T10:11:10.855Z,14.17
2023-03-18T10:14:19.349Z,14.64
2023-03-18T10:17:17.725Z,14.78
2023-03-18T10:20:16.675Z,14.75
2023-03-18T10:23:25.541Z,14.73
2023-03-18T10:26:17.932Z,14.71
2023-03-18T10:29:23.704Z,14.66
2023-03-18T10:32:33.322Z,14.66
2023-03-18T10:35:38.986Z,14.71
2023-03-18T10:38:34.229Z,14.79
2023-03-18T10:41:27.759Z,14.90
2023-03-18T10:44:21.692Z,15.09
2023-03-18T10:47:17.137Z,15.29
2023-03-18T10:50:17.309Z,15.77
2023-03-18T10:53:14.559Z,16.15
2023-03-18T10:56:08.590Z,16.41
2023-03-18T10:58:57.513Z,16.46
2023-03-18T11:01:50.049Z,16.80
2023-03-18T11:04:46.873Z,16.88
2023-03-18T11:07:36.088Z,17.09
2023-03-18T11:10:27.714Z,17.33
2023-03-18T11:13:18.606Z,17.56
2023-03-18T11:16:07.826Z,17.78
2023-03-18T11:18:58.027Z,18.02
2023-03-18T11:21:46.893Z,18.35
2023-03-18T11:24:42.488Z,18.38
2023-03-18T11:27:38.613Z,18.65
2023-03-18T11:30:34.924Z,18.70
2023-03-18T11:33:25.861Z,18.77
2023-03-18T11:36:19.402Z,18.77
2023-03-18T11:39:08.336Z,18.84
2023-03-18T11:42:01.388Z,18.95
2023-03-18T11:44:57.417Z,19.11
2023-03-18T11:47:48.527Z,18.93
2023-03-18T11:50:46.734Z,19.14
2023-03-18T11:53:48.510Z,19.42
2023-03-18T11:56:45.034Z,19.80
2023-03-18T11:59:43.833Z,20.03
2023-03-18T12:02:49.894Z,20.32
2023-03-18T12:06:00.184Z,20.41
2023-03-18T12:09:01.094Z,20.63
2023-03-18T12:12:16.677Z,21.00
2023-03-18T12:15:16.886Z,21.47
2023-03-18T12:18:15.914Z,21.62
2023-03-18T12:21:23.652Z,21.89
2023-03-18T12:24:33.998Z,21.67
2023-03-18T12:27:34.012Z,21.52
2023-03-18T12:30:43.589Z,21.88
2023-03-18T12:33:44.626Z,22.04
2023-03-18T12:36:49.098Z,22.07
2023-03-18T12:40:06.512Z,22.49
2023-03-18T12:43:16.127Z,22.94
2023-03-18T12:46:13.120Z,23.05
2023-03-18T12:49:11.198Z,22.98
2023-03-18T12:52:07.766Z,22.88
2023-03-18T12:55:02.957Z,22.76
2023-03-18T12:57:56.579Z,22.92
2023-03-18T13:00:50.797Z,23.30
2023-03-18T13:03:42.040Z,23.90
2023-03-18T13:06:38.015Z,23.86
2023-03-18T13:09:39.530Z,23.72
2023-03-18T13:12:33.577Z,23.92
2023-03-18T13:15:28.340Z,23.68
2023-03-18T13:18:21.886Z,23.86
2023-03-18T13:21:15.921Z,24.38
2023-03-18T13:24:41.488Z,24.76
2023-03-18T13:27:54.033Z,24.99
2023-03-18T13:30:57.578Z,25.19
2023-03-18T13:34:11.862Z,24.76
2023-03-18T13:37:18.560Z,24.42
2023-03-18T13:40:28.556Z,24.65
2023-03-18T13:43:22.154Z,24.98
2023-03-18T13:46:20.913Z,25.22
2023-03-18T13:49:18.852Z,25.27
2023-03-18T13:52:24.537Z,25.41
2023-03-18T13:55:28.488Z,25.57
2023-03-18T13:58:26.353Z,25.62
2023-03-18T14:01:33.595Z,25.40
2023-03-18T14:04:33.512Z,25.35
2023-03-18T14:07:23.961Z,25.42
2023-03-18T14:10:20.862Z,25.41
2023-03-18T14:13:29.983Z,25.61
2023-03-18T14:16:23.842Z,25.81
2023-03-18T14:19:19.635Z,26.00
2023-03-18T14:22:15.180Z,26.11
2023-03-18T14:25:39.693Z,26.31
2023-03-18T14:28:31.152Z,26.30
2023-03-18T14:31:43.036Z,26.49
2023-03-18T14:34:34.545Z,26.60
2023-03-18T14:37:30.205Z,26.66
2023-03-18T14:40:19.014Z,26.75
2023-03-18T14:43:12.870Z,26.93
2023-03-18T14:46:06.706Z,27.04
2023-03-18T14:48:55.743Z,27.11
2023-03-18T14:51:44.477Z,27.24
2023-03-18T14:54:39.271Z,27.27
2023-03-18T14:57:28.415Z,27.15
2023-03-18T15:00:20.444Z,27.09
2023-03-18T15:03:19.297Z,27.10
2023-03-18T15:06:09.697Z,27.14
2023-03-18T15:09:02.493Z,26.87
2023-03-18T15:11:52.394Z,26.17
2023-03-18T15:14:42.728Z,26.07
2023-03-18T15:17:32.202Z,26.01
2023-03-18T15:20:24.326Z,25.83
2023-03-18T15:23:15.545Z,25.92
2023-03-18T15:26:06.046Z,25.84
2023-03-18T15:28:57.459Z,25.60
2023-03-18T15:31:46.645Z,25.48
2023-03-18T15:34:38.617Z,24.95
2023-03-18T15:37:40.595Z,24.46
2023-03-18T15:40:32.307Z,24.05
2023-03-18T15:43:31.052Z,23.72
2023-03-18T15:46:25.688Z,23.33
2023-03-18T15:49:16.370Z,23.20
2023-03-18T15:52:09.516Z,22.95
2023-03-18T15:54:59.482Z,22.93
2023-03-18T15:57:48.373Z,22.67
2023-03-18T16:00:37.028Z,22.28
2023-03-18T16:03:29.219Z,22.00
2023-03-18T16:06:18.259Z,21.63
2023-03-18T16:09:15.583Z,21.31
2023-03-18T16:12:14.852Z,20.95
2023-03-18T16:15:05.869Z,20.76
2023-03-18T16:17:56.260Z,20.48
2023-03-18T16:20:46.680Z,20.56
2023-03-18T16:23:35.882Z,20.18
2023-03-18T16:26:24.841Z,19.85
2023-03-18T16:29:22.553Z,19.50
2023-03-18T16:32:14.285Z,19.36
2023-03-18T16:35:04.246Z,19.14
2023-03-18T16:37:54.486Z,19.03
2023-03-18T16:40:45.376Z,18.95
2023-03-18T16:43:34.385Z,18.87
2023-03-18T16:46:26.684Z,18.73
2023-03-18T16:49:17.437Z,18.62
2023-03-18T16:52:07.135Z,18.38
2023-03-18T16:54:56.149Z,18.03
2023-03-18T16:57:48.619Z,17.72
2023-03-18T17:00:39.289Z,17.61
2023-03-18T17:03:30.012Z,17.52
2023-03-18T17:06:20.142Z,17.36
2023-03-18T17:09:09.294Z,17.20
2023-03-18T17:12:01.885Z,17.06
2023-03-18T17:14:55.035Z,16.86
2023-03-18T17:17:45.463Z,16.76
2023-03-18T17:20:36.589Z,16.58
2023-03-18T17:23:27.645Z,16.42
2023-03-18T17:26:16.902Z,16.43
2023-03-18T17:29:06.049Z,16.42
2023-03-18T17:31:57.713Z,16.28
2023-03-18T17:34:49.066Z,16.20
2023-03-18T17:37:39.466Z,16.22
2023-03-18T17:40:32.052Z,16.32
2023-03-18T17:43:33.222Z,16.37
2023-03-18T17:46:21.901Z,16.42
2023-03-18T17:49:12.322Z,16.45
2023-03-18T17:52:01.106Z,16.47
2023-03-18T17:54:52.227Z,16.33
2023-03-18T17:57:42.172Z,16.32
2023-03-18T18:00:31.541Z,16.31
2023-03-18T18:03:24.230Z,16.26
2023-03-18T18:06:18.486Z,16.13
2023-03-18T18:09:07.701Z,16.12
2023-03-18T18:11:58.116Z,16.11
2023-03-18T18:14:47.448Z,16.05
2023-03-18T18:17:37.504Z,15.95
2023-03-18T18:20:26.527Z,15.81
2023-03-18T18:23:25.500Z,15.82
2023-03-18T18:26:16.176Z,15.82
2023-03-18T18:29:14.483Z,15.83
2023-03-18T18:32:04.413Z,15.88
2023-03-18T18:34:54.373Z,15.80
2023-03-18T18:37:43.158Z,15.71
2023-03-18T18:40:35.185Z,15.64
2023-03-18T18:43:25.055Z,15.57
2023-03-18T18:46:16.873Z,15.47
2023-03-18T18:49:05.649Z,15.48
2023-03-18T18:51:57.688Z,15.35
2023-03-18T18:54:46.796Z,15.29
2023-03-18T18:57:39.861Z,15.23
2023-03-18T19:00:28.596Z,15.19
2023-03-18T19:03:20.644Z,15.09
2023-03-18T19:06:20.316Z,15.11
2023-03-18T19:09:17.223Z,15.05
2023-03-18T19:12:15.435Z,14.88
2023-03-18T19:15:05.367Z,14.74
2023-03-18T19:17:54.397Z,14.65
2023-03-18T19:20:44.381Z,14.56
2023-03-18T19:23:35.965Z,14.54
2023-03-18T19:26:25.045Z,14.40
2023-03-18T19:29:14.004Z,14.26
2023-03-18T19:32:03.131Z,14.27
2023-03-18T19:34:53.726Z,14.20
2023-03-18T19:37:46.793Z,14.13
2023-03-18T19:40:35.602Z,14.02
2023-03-18T19:43:24.747Z,14.01
2023-03-18T19:46:17.080Z,13.92
2023-03-18T19:49:14.006Z,13.89
2023-03-18T19:52:03.557Z,13.77
2023-03-18T19:54:54.354Z,13.72
2023-03-18T19:57:46.396Z,13.65
2023-03-18T20:00:35.483Z,13.56
2023-03-18T20:03:26.419Z,13.48
2023-03-18T20:06:18.055Z,13.44
2023-03-18T20:09:06.660Z,13.41
2023-03-18T20:12:05.422Z,13.38
2023-03-18T20:14:54.139Z,13.37
2023-03-18T20:17:44.757Z,13.39
2023-03-18T20:20:34.943Z,13.30
2023-03-18T20:23:26.111Z,13.20
2023-03-18T20:26:16.500Z,13.11
2023-03-18T20:29:16.983Z,13.01
2023-03-18T20:32:06.375Z,12.87
2023-03-18T20:34:55.440Z,12.79
2023-03-18T20:37:44.127Z,12.68
2023-03-18T20:40:34.526Z,12.57
2023-03-18T20:43:25.957Z,12.35
2023-03-18T20:46:16.216Z,12.51
2023-03-18T20:49:04.947Z,12.53
2023-03-18T20:51:53.826Z,12.56
2023-03-18T20:54:43.648Z,12.54
2023-03-18T20:57:32.608Z,12.49
2023-03-18T21:00:23.120Z,12.43
2023-03-18T21:03:24.325Z,12.46
2023-03-18T21:06:15.500Z,12.42
2023-03-18T21:09:07.125Z,12.36
2023-03-18T21:11:55.808Z,12.31
2023-03-18T21:14:46.643Z,12.17
2023-03-18T21:17:35.222Z,12.06
2023-03-18T21:20:30.037Z,12.07
2023-03-18T21:23:21.480Z,12.04
2023-03-18T21:26:10.193Z,12.00
2023-03-18T21:28:59.648Z,11.94
2023-03-18T21:31:48.416Z,11.97
2023-03-18T21:34:38.492Z,11.88
2023-03-18T21:37:29.288Z,11.76
2023-03-18T21:40:20.109Z,11.64
2023-03-18T21:43:26.757Z,11.60
2023-03-18T21:46:18.679Z,11.42
2023-03-18T21:49:07.373Z,11.42
2023-03-18T21:51:56.104Z,11.41
2023-03-18T21:54:47.884Z,11.37
2023-03-18T21:57:37.101Z,11.39
2023-03-18T22:00:27.481Z,11.30
2023-03-18T22:03:17.214Z,11.37
2023-03-18T22:06:06.727Z,11.33
2023-03-18T22:08:57.260Z,11.30
2023-03-18T22:11:47.445Z,11.32
2023-03-18T22:14:36.420Z,11.28
2023-03-18T22:17:27.132Z,11.22
2023-03-18T22:20:17.190Z,11.12
2023-03-18T22:23:18.649Z,11.11
2023-03-18T22:26:07.724Z,11.10
2023-03-18T22:28:57.877Z,11.13
2023-03-18T22:31:47.045Z,11.13
2023-03-18T22:34:36.078Z,11.08
2023-03-18T22:37:26.686Z,10.98
2023-03-18T22:40:19.466Z,10.94
2023-03-18T22:43:19.683Z,10.89
2023-03-18T22:46:11.730Z,10.80
2023-03-18T22:49:06.249Z,10.78
2023-03-18T22:51:56.267Z,10.73
2023-03-18T22:54:44.869Z,10.70
2023-03-18T22:57:34.503Z,10.71
2023-03-18T23:00:26.387Z,10.80
2023-03-18T23:03:19.466Z,10.84
2023-03-18T23:06:10.497Z,10.77
2023-03-18T23:08:59.280Z,10.73
2023-03-18T23:11:48.717Z,10.71
2023-03-18T23:14:37.904Z,10.69
2023-03-18T23:17:29.615Z,10.72
2023-03-18T23:20:19.941Z,10.66
2023-03-18T23:23:09.746Z,10.62
2023-03-18T23:25:58.756Z,10.60
2023-03-18T23:28:49.317Z,10.64
2023-03-18T23:31:37.978Z,10.57
2023-03-18T23:34:27.378Z,10.56
2023-03-18T23:37:18.030Z,10.46
2023-03-18T23:40:07.701Z,10.50
2023-03-18T23:42:57.842Z,10.46
2023-03-18T23:45:47.005Z,10.39
2023-03-18T23:48:36.285Z,10.32
2023-03-18T23:51:24.942Z,10.21
2023-03-18T23:54:16.498Z,10.11
2023-03-18T23:57:05.413Z,10.07
2023-03-18T23:59:54.544Z,10.03
